sensor_id;sensor_type;location;lat;lon;timestamp;P1;durP1;ratioP1;P2;durP2;ratioP2
48789;SDS011;41718;51.980;5.734;2022-12-26T00:00:07;76.35;;;30.25;;
48789;SDS011;41718;51.980;5.734;2022-12-26T00:05:12;94.03;;;33.13;;
48789;SDS011;41718;51.980;5.734;2022-12-26T00:10:13;89.13;;;34.13;;
48789;SDS011;41718;51.980;5.734;2022-12-26T00:15:15;92.30;;;37.70;;
48789;SDS011;41718;51.980;5.734;2022-12-26T00:20:16;77.55;;;31.92;;
48789;SDS011;41718;51.980;5.734;2022-12-26T00:25:18;78.20;;;31.38;;
48789;SDS011;41718;51.980;5.734;2022-12-26T00:30:19;89.28;;;36.67;;
48789;SDS011;41718;51.980;5.734;2022-12-26T00:35:20;102.07;;;36.25;;
48789;SDS011;41718;51.980;5.734;2022-12-26T00:40:22;90.20;;;34.13;;
48789;SDS011;41718;51.980;5.734;2022-12-26T00:45:24;112.72;;;37.28;;
48789;SDS011;41718;51.980;5.734;2022-12-26T00:50:25;94.55;;;38.03;;
48789;SDS011;41718;51.980;5.734;2022-12-26T00:55:34;83.72;;;32.40;;
48789;SDS011;41718;51.980;5.734;2022-12-26T01:00:36;58.47;;;26.20;;
48789;SDS011;41718;51.980;5.734;2022-12-26T01:05:41;42.88;;;22.33;;
48789;SDS011;41718;51.980;5.734;2022-12-26T01:10:45;42.60;;;21.13;;
48789;SDS011;41718;51.980;5.734;2022-12-26T01:15:48;40.05;;;21.77;;
48789;SDS011;41718;51.980;5.734;2022-12-26T01:20:56;48.50;;;23.87;;
48789;SDS011;41718;51.980;5.734;2022-12-26T01:26:05;42.20;;;21.75;;
48789;SDS011;41718;51.980;5.734;2022-12-26T01:31:20;34.67;;;18.80;;
48789;SDS011;41718;51.980;5.734;2022-12-26T01:36:23;36.05;;;21.52;;
48789;SDS011;41718;51.980;5.734;2022-12-26T01:41:24;34.17;;;18.50;;
48789;SDS011;41718;51.980;5.734;2022-12-26T01:46:34;37.55;;;20.27;;
48789;SDS011;41718;51.980;5.734;2022-12-26T01:51:39;38.28;;;20.60;;
48789;SDS011;41718;51.980;5.734;2022-12-26T01:56:45;35.58;;;19.50;;
48789;SDS011;41718;51.980;5.734;2022-12-26T02:01:48;35.75;;;19.67;;
48789;SDS011;41718;51.980;5.734;2022-12-26T02:06:52;28.63;;;16.92;;
48789;SDS011;41718;51.980;5.734;2022-12-26T02:11:59;29.45;;;16.98;;
48789;SDS011;41718;51.980;5.734;2022-12-26T02:17:29;29.48;;;16.58;;
48789;SDS011;41718;51.980;5.734;2022-12-26T02:27:48;21.95;;;13.48;;
48789;SDS011;41718;51.980;5.734;2022-12-26T02:38:34;26.80;;;15.90;;
48789;SDS011;41718;51.980;5.734;2022-12-26T02:49:10;26.20;;;17.15;;
48789;SDS011;41718;51.980;5.734;2022-12-26T02:54:20;30.63;;;19.02;;
48789;SDS011;41718;51.980;5.734;2022-12-26T03:05:54;27.33;;;16.58;;
48789;SDS011;41718;51.980;5.734;2022-12-26T03:10:57;33.70;;;19.73;;
48789;SDS011;41718;51.980;5.734;2022-12-26T03:16:17;32.70;;;18.85;;
48789;SDS011;41718;51.980;5.734;2022-12-26T03:21:50;38.03;;;22.17;;
48789;SDS011;41718;51.980;5.734;2022-12-26T03:26:53;39.78;;;23.23;;
48789;SDS011;41718;51.980;5.734;2022-12-26T03:31:54;36.42;;;22.90;;
48789;SDS011;41718;51.980;5.734;2022-12-26T03:48:16;28.73;;;18.35;;
48789;SDS011;41718;51.980;5.734;2022-12-26T03:53:49;37.03;;;20.50;;
48789;SDS011;41718;51.980;5.734;2022-12-26T03:59:19;33.22;;;18.58;;
48789;SDS011;41718;51.980;5.734;2022-12-26T04:04:46;34.50;;;21.88;;
48789;SDS011;41718;51.980;5.734;2022-12-26T04:10:11;36.30;;;22.50;;
48789;SDS011;41718;51.980;5.734;2022-12-26T04:15:38;35.25;;;21.90;;
48789;SDS011;41718;51.980;5.734;2022-12-26T04:21:20;31.30;;;20.98;;
48789;SDS011;41718;51.980;5.734;2022-12-26T04:26:47;31.33;;;20.52;;
48789;SDS011;41718;51.980;5.734;2022-12-26T04:32:22;36.72;;;20.83;;
48789;SDS011;41718;51.980;5.734;2022-12-26T04:37:52;34.58;;;21.90;;
48789;SDS011;41718;51.980;5.734;2022-12-26T04:43:15;41.85;;;25.20;;
48789;SDS011;41718;51.980;5.734;2022-12-26T04:48:51;38.13;;;24.08;;
48789;SDS011;41718;51.980;5.734;2022-12-26T04:54:13;40.50;;;25.30;;
48789;SDS011;41718;51.980;5.734;2022-12-26T04:59:14;32.47;;;21.70;;
48789;SDS011;41718;51.980;5.734;2022-12-26T05:04:17;41.00;;;23.20;;
48789;SDS011;41718;51.980;5.734;2022-12-26T05:09:37;29.88;;;19.77;;
48789;SDS011;41718;51.980;5.734;2022-12-26T05:14:39;28.63;;;18.90;;
48789;SDS011;41718;51.980;5.734;2022-12-26T05:19:41;22.92;;;15.02;;
48789;SDS011;41718;51.980;5.734;2022-12-26T05:25:01;23.40;;;16.85;;
48789;SDS011;41718;51.980;5.734;2022-12-26T05:30:21;22.33;;;13.57;;
48789;SDS011;41718;51.980;5.734;2022-12-26T05:35:23;17.88;;;12.27;;
48789;SDS011;41718;51.980;5.734;2022-12-26T05:40:24;16.23;;;11.75;;
48789;SDS011;41718;51.980;5.734;2022-12-26T05:45:26;15.15;;;10.82;;
48789;SDS011;41718;51.980;5.734;2022-12-26T05:50:27;16.63;;;9.98;;
48789;SDS011;41718;51.980;5.734;2022-12-26T05:55:29;10.38;;;7.50;;
48789;SDS011;41718;51.980;5.734;2022-12-26T06:00:31;9.95;;;7.50;;
48789;SDS011;41718;51.980;5.734;2022-12-26T06:05:33;10.75;;;7.18;;
48789;SDS011;41718;51.980;5.734;2022-12-26T06:10:34;18.35;;;7.43;;
48789;SDS011;41718;51.980;5.734;2022-12-26T06:15:36;12.20;;;8.07;;
48789;SDS011;41718;51.980;5.734;2022-12-26T06:20:39;13.00;;;8.15;;
48789;SDS011;41718;51.980;5.734;2022-12-26T06:25:40;12.52;;;7.35;;
48789;SDS011;41718;51.980;5.734;2022-12-26T06:30:41;9.30;;;5.55;;
48789;SDS011;41718;51.980;5.734;2022-12-26T06:35:43;10.80;;;5.78;;
48789;SDS011;41718;51.980;5.734;2022-12-26T06:40:45;10.40;;;5.63;;
48789;SDS011;41718;51.980;5.734;2022-12-26T06:45:56;8.75;;;6.45;;
48789;SDS011;41718;51.980;5.734;2022-12-26T06:51:02;8.57;;;6.95;;
48789;SDS011;41718;51.980;5.734;2022-12-26T06:56:12;9.55;;;6.40;;
48789;SDS011;41718;51.980;5.734;2022-12-26T07:01:16;10.73;;;6.68;;
48789;SDS011;41718;51.980;5.734;2022-12-26T07:06:26;10.05;;;6.57;;
48789;SDS011;41718;51.980;5.734;2022-12-26T07:11:33;10.82;;;7.20;;
48789;SDS011;41718;51.980;5.734;2022-12-26T07:16:37;19.77;;;8.07;;
48789;SDS011;41718;51.980;5.734;2022-12-26T07:21:40;11.00;;;5.65;;
48789;SDS011;41718;51.980;5.734;2022-12-26T07:26:43;13.57;;;8.32;;
48789;SDS011;41718;51.980;5.734;2022-12-26T07:31:45;11.73;;;7.72;;
48789;SDS011;41718;51.980;5.734;2022-12-26T07:36:47;11.27;;;6.60;;
48789;SDS011;41718;51.980;5.734;2022-12-26T07:41:48;11.18;;;8.15;;
48789;SDS011;41718;51.980;5.734;2022-12-26T07:46:59;8.82;;;7.00;;
48789;SDS011;41718;51.980;5.734;2022-12-26T07:52:01;10.73;;;7.68;;
48789;SDS011;41718;51.980;5.734;2022-12-26T07:57:03;13.30;;;6.88;;
48789;SDS011;41718;51.980;5.734;2022-12-26T08:02:24;9.27;;;7.03;;
48789;SDS011;41718;51.980;5.734;2022-12-26T08:07:32;10.95;;;6.30;;
48789;SDS011;41718;51.980;5.734;2022-12-26T08:12:34;9.88;;;7.35;;
48789;SDS011;41718;51.980;5.734;2022-12-26T08:17:36;8.10;;;5.28;;
48789;SDS011;41718;51.980;5.734;2022-12-26T08:22:37;8.80;;;5.47;;
48789;SDS011;41718;51.980;5.734;2022-12-26T08:27:39;6.93;;;4.43;;
48789;SDS011;41718;51.980;5.734;2022-12-26T08:32:42;6.78;;;4.15;;
48789;SDS011;41718;51.980;5.734;2022-12-26T08:37:46;6.18;;;4.72;;
48789;SDS011;41718;51.980;5.734;2022-12-26T08:42:48;9.02;;;4.78;;
48789;SDS011;41718;51.980;5.734;2022-12-26T08:48:09;5.22;;;3.55;;
48789;SDS011;41718;51.980;5.734;2022-12-26T08:53:10;5.05;;;3.55;;
48789;SDS011;41718;51.980;5.734;2022-12-26T08:58:12;4.22;;;2.67;;
48789;SDS011;41718;51.980;5.734;2022-12-26T09:03:14;4.03;;;2.47;;
48789;SDS011;41718;51.980;5.734;2022-12-26T09:08:16;3.13;;;2.83;;
48789;SDS011;41718;51.980;5.734;2022-12-26T09:13:20;3.42;;;2.58;;
48789;SDS011;41718;51.980;5.734;2022-12-26T09:18:22;4.18;;;2.45;;
48789;SDS011;41718;51.980;5.734;2022-12-26T09:23:24;5.93;;;3.03;;
48789;SDS011;41718;51.980;5.734;2022-12-26T09:28:27;4.18;;;2.90;;
48789;SDS011;41718;51.980;5.734;2022-12-26T09:33:29;3.47;;;2.00;;
48789;SDS011;41718;51.980;5.734;2022-12-26T09:38:33;3.67;;;2.25;;
48789;SDS011;41718;51.980;5.734;2022-12-26T09:49:21;5.72;;;2.67;;
48789;SDS011;41718;51.980;5.734;2022-12-26T09:59:51;7.72;;;2.22;;
48789;SDS011;41718;51.980;5.734;2022-12-26T10:04:57;6.18;;;2.22;;
48789;SDS011;41718;51.980;5.734;2022-12-26T10:10:08;1.27;;;1.17;;
48789;SDS011;41718;51.980;5.734;2022-12-26T10:15:22;2.15;;;1.50;;
48789;SDS011;41718;51.980;5.734;2022-12-26T10:20:33;3.58;;;1.60;;
48789;SDS011;41718;51.980;5.734;2022-12-26T10:26:02;4.82;;;1.77;;
48789;SDS011;41718;51.980;5.734;2022-12-26T10:31:12;11.07;;;2.25;;
48789;SDS011;41718;51.980;5.734;2022-12-26T10:36:28;11.52;;;2.70;;
48789;SDS011;41718;51.980;5.734;2022-12-26T10:42:20;3.70;;;1.33;;
48789;SDS011;41718;51.980;5.734;2022-12-26T10:52:29;5.38;;;0.90;;
48789;SDS011;41718;51.980;5.734;2022-12-26T10:57:34;11.30;;;1.90;;
48789;SDS011;41718;51.980;5.734;2022-12-26T11:02:36;8.82;;;2.15;;
48789;SDS011;41718;51.980;5.734;2022-12-26T11:07:46;7.53;;;2.00;;
48789;SDS011;41718;51.980;5.734;2022-12-26T11:12:55;4.78;;;2.13;;
48789;SDS011;41718;51.980;5.734;2022-12-26T11:18:16;4.28;;;1.08;;
48789;SDS011;41718;51.980;5.734;2022-12-26T11:23:37;5.55;;;2.55;;
48789;SDS011;41718;51.980;5.734;2022-12-26T11:28:38;9.27;;;1.80;;
48789;SDS011;41718;51.980;5.734;2022-12-26T11:33:40;6.13;;;1.83;;
48789;SDS011;41718;51.980;5.734;2022-12-26T11:38:48;1.00;;;0.57;;
48789;SDS011;41718;51.980;5.734;2022-12-26T11:43:52;3.00;;;0.75;;
48789;SDS011;41718;51.980;5.734;2022-12-26T11:48:56;6.07;;;1.13;;
48789;SDS011;41718;51.980;5.734;2022-12-26T11:59:31;5.82;;;1.38;;
48789;SDS011;41718;51.980;5.734;2022-12-26T12:04:33;3.58;;;1.38;;
48789;SDS011;41718;51.980;5.734;2022-12-26T12:09:44;8.93;;;1.77;;
48789;SDS011;41718;51.980;5.734;2022-12-26T12:25:45;2.50;;;1.95;;
48789;SDS011;41718;51.980;5.734;2022-12-26T12:30:54;4.18;;;1.40;;
48789;SDS011;41718;51.980;5.734;2022-12-26T12:36:02;3.95;;;0.90;;
48789;SDS011;41718;51.980;5.734;2022-12-26T12:46:45;6.32;;;2.20;;
48789;SDS011;41718;51.980;5.734;2022-12-26T13:03:00;13.30;;;2.58;;
48789;SDS011;41718;51.980;5.734;2022-12-26T13:08:14;11.50;;;2.10;;
48789;SDS011;41718;51.980;5.734;2022-12-26T13:13:41;4.57;;;1.50;;
48789;SDS011;41718;51.980;5.734;2022-12-26T13:19:04;4.47;;;1.40;;
48789;SDS011;41718;51.980;5.734;2022-12-26T13:24:15;6.50;;;3.20;;
48789;SDS011;41718;51.980;5.734;2022-12-26T13:29:44;5.38;;;1.55;;
48789;SDS011;41718;51.980;5.734;2022-12-26T13:34:47;3.10;;;2.17;;
48789;SDS011;41718;51.980;5.734;2022-12-26T13:39:50;6.20;;;1.55;;
48789;SDS011;41718;51.980;5.734;2022-12-26T13:44:53;5.82;;;3.63;;
48789;SDS011;41718;51.980;5.734;2022-12-26T13:49:55;1.65;;;1.33;;
48789;SDS011;41718;51.980;5.734;2022-12-26T14:00:06;2.85;;;0.93;;
48789;SDS011;41718;51.980;5.734;2022-12-26T14:16:16;3.67;;;1.20;;
48789;SDS011;41718;51.980;5.734;2022-12-26T14:32:01;5.57;;;2.00;;
48789;SDS011;41718;51.980;5.734;2022-12-26T14:37:32;7.00;;;2.50;;
48789;SDS011;41718;51.980;5.734;2022-12-26T14:43:11;9.18;;;3.97;;
48789;SDS011;41718;51.980;5.734;2022-12-26T14:53:34;5.93;;;3.00;;
48789;SDS011;41718;51.980;5.734;2022-12-26T14:58:40;7.97;;;3.28;;
48789;SDS011;41718;51.980;5.734;2022-12-26T15:09:03;6.05;;;2.80;;
48789;SDS011;41718;51.980;5.734;2022-12-26T15:14:35;5.30;;;2.90;;
48789;SDS011;41718;51.980;5.734;2022-12-26T15:30:48;3.88;;;2.38;;
48789;SDS011;41718;51.980;5.734;2022-12-26T15:41:12;4.30;;;2.03;;
48789;SDS011;41718;51.980;5.734;2022-12-26T15:46:31;4.70;;;2.53;;
48789;SDS011;41718;51.980;5.734;2022-12-26T15:51:51;4.90;;;1.95;;
48789;SDS011;41718;51.980;5.734;2022-12-26T16:02:10;8.18;;;3.50;;
48789;SDS011;41718;51.980;5.734;2022-12-26T16:07:42;3.70;;;2.97;;
48789;SDS011;41718;51.980;5.734;2022-12-26T16:12:56;9.00;;;4.93;;
48789;SDS011;41718;51.980;5.734;2022-12-26T16:18:18;13.02;;;5.03;;
48789;SDS011;41718;51.980;5.734;2022-12-26T16:23:22;22.70;;;12.05;;
48789;SDS011;41718;51.980;5.734;2022-12-26T16:33:38;8.15;;;4.30;;
48789;SDS011;41718;51.980;5.734;2022-12-26T16:38:42;8.25;;;4.10;;
48789;SDS011;41718;51.980;5.734;2022-12-26T16:43:45;9.00;;;5.22;;
48789;SDS011;41718;51.980;5.734;2022-12-26T16:48:56;9.38;;;3.05;;
48789;SDS011;41718;51.980;5.734;2022-12-26T16:59:20;9.13;;;4.88;;
48789;SDS011;41718;51.980;5.734;2022-12-26T17:04:28;6.30;;;3.00;;
48789;SDS011;41718;51.980;5.734;2022-12-26T17:09:41;11.95;;;3.42;;
48789;SDS011;41718;51.980;5.734;2022-12-26T17:14:46;11.55;;;4.30;;
48789;SDS011;41718;51.980;5.734;2022-12-26T17:19:50;4.88;;;3.47;;
48789;SDS011;41718;51.980;5.734;2022-12-26T17:30:27;10.57;;;5.07;;
48789;SDS011;41718;51.980;5.734;2022-12-26T17:35:33;16.23;;;5.00;;
48789;SDS011;41718;51.980;5.734;2022-12-26T17:41:00;10.20;;;4.75;;
48789;SDS011;41718;51.980;5.734;2022-12-26T17:46:06;7.68;;;3.75;;
48789;SDS011;41718;51.980;5.734;2022-12-26T17:51:12;7.40;;;3.30;;
48789;SDS011;41718;51.980;5.734;2022-12-26T17:56:17;8.10;;;4.38;;
48789;SDS011;41718;51.980;5.734;2022-12-26T18:01:22;8.50;;;3.80;;
48789;SDS011;41718;51.980;5.734;2022-12-26T18:06:26;18.42;;;5.45;;
48789;SDS011;41718;51.980;5.734;2022-12-26T18:11:31;9.02;;;3.97;;
48789;SDS011;41718;51.980;5.734;2022-12-26T18:16:33;7.50;;;3.67;;
48789;SDS011;41718;51.980;5.734;2022-12-26T18:21:34;8.18;;;3.20;;
48789;SDS011;41718;51.980;5.734;2022-12-26T18:26:36;12.07;;;3.17;;
48789;SDS011;41718;51.980;5.734;2022-12-26T18:31:40;13.15;;;6.07;;
48789;SDS011;41718;51.980;5.734;2022-12-26T18:36:42;7.57;;;4.05;;
48789;SDS011;41718;51.980;5.734;2022-12-26T18:41:44;18.17;;;6.00;;
48789;SDS011;41718;51.980;5.734;2022-12-26T18:46:46;6.15;;;3.45;;
48789;SDS011;41718;51.980;5.734;2022-12-26T18:51:50;13.00;;;3.15;;
48789;SDS011;41718;51.980;5.734;2022-12-26T18:56:51;9.20;;;3.20;;
48789;SDS011;41718;51.980;5.734;2022-12-26T19:01:53;10.25;;;4.53;;
48789;SDS011;41718;51.980;5.734;2022-12-26T19:06:55;7.22;;;3.75;;
48789;SDS011;41718;51.980;5.734;2022-12-26T19:11:59;10.50;;;4.82;;
48789;SDS011;41718;51.980;5.734;2022-12-26T19:17:01;11.40;;;4.82;;
48789;SDS011;41718;51.980;5.734;2022-12-26T19:22:02;5.80;;;2.30;;
48789;SDS011;41718;51.980;5.734;2022-12-26T19:27:05;11.32;;;4.72;;
48789;SDS011;41718;51.980;5.734;2022-12-26T19:32:07;12.75;;;4.70;;
48789;SDS011;41718;51.980;5.734;2022-12-26T19:37:08;12.15;;;3.95;;
48789;SDS011;41718;51.980;5.734;2022-12-26T19:42:10;14.75;;;3.58;;
48789;SDS011;41718;51.980;5.734;2022-12-26T19:47:11;11.68;;;3.67;;
48789;SDS011;41718;51.980;5.734;2022-12-26T19:52:14;6.47;;;3.28;;
48789;SDS011;41718;51.980;5.734;2022-12-26T19:57:16;11.20;;;5.82;;
48789;SDS011;41718;51.980;5.734;2022-12-26T20:02:17;5.55;;;2.75;;
48789;SDS011;41718;51.980;5.734;2022-12-26T20:07:19;9.40;;;4.10;;
48789;SDS011;41718;51.980;5.734;2022-12-26T20:12:20;11.23;;;3.90;;
48789;SDS011;41718;51.980;5.734;2022-12-26T20:17:22;9.65;;;3.25;;
48789;SDS011;41718;51.980;5.734;2022-12-26T20:22:25;7.60;;;2.47;;
48789;SDS011;41718;51.980;5.734;2022-12-26T20:27:27;5.72;;;3.28;;
48789;SDS011;41718;51.980;5.734;2022-12-26T20:32:29;8.93;;;3.45;;
48789;SDS011;41718;51.980;5.734;2022-12-26T20:37:30;11.82;;;3.28;;
48789;SDS011;41718;51.980;5.734;2022-12-26T20:42:32;6.97;;;3.15;;
48789;SDS011;41718;51.980;5.734;2022-12-26T20:47:36;7.32;;;3.03;;
48789;SDS011;41718;51.980;5.734;2022-12-26T20:52:37;9.73;;;3.65;;
48789;SDS011;41718;51.980;5.734;2022-12-26T20:57:41;13.20;;;3.10;;
48789;SDS011;41718;51.980;5.734;2022-12-26T21:02:43;6.88;;;3.30;;
48789;SDS011;41718;51.980;5.734;2022-12-26T21:07:45;6.53;;;3.22;;
48789;SDS011;41718;51.980;5.734;2022-12-26T21:12:49;8.43;;;3.90;;
48789;SDS011;41718;51.980;5.734;2022-12-26T21:17:51;9.40;;;4.50;;
48789;SDS011;41718;51.980;5.734;2022-12-26T21:22:56;12.40;;;4.05;;
48789;SDS011;41718;51.980;5.734;2022-12-26T21:28:05;8.18;;;4.28;;
48789;SDS011;41718;51.980;5.734;2022-12-26T21:33:07;8.93;;;3.35;;
48789;SDS011;41718;51.980;5.734;2022-12-26T21:38:31;9.35;;;3.72;;
48789;SDS011;41718;51.980;5.734;2022-12-26T21:49:36;10.07;;;4.75;;
48789;SDS011;41718;51.980;5.734;2022-12-26T21:54:37;5.10;;;3.83;;
48789;SDS011;41718;51.980;5.734;2022-12-26T21:59:59;10.15;;;5.03;;
48789;SDS011;41718;51.980;5.734;2022-12-26T22:05:04;9.55;;;3.72;;
48789;SDS011;41718;51.980;5.734;2022-12-26T22:10:06;11.63;;;4.82;;
48789;SDS011;41718;51.980;5.734;2022-12-26T22:15:08;8.05;;;4.47;;
48789;SDS011;41718;51.980;5.734;2022-12-26T22:20:30;7.93;;;4.82;;
48789;SDS011;41718;51.980;5.734;2022-12-26T22:25:34;7.38;;;3.25;;
48789;SDS011;41718;51.980;5.734;2022-12-26T22:30:35;10.65;;;4.15;;
48789;SDS011;41718;51.980;5.734;2022-12-26T22:35:37;11.05;;;5.45;;
48789;SDS011;41718;51.980;5.734;2022-12-26T22:40:38;8.15;;;4.53;;
48789;SDS011;41718;51.980;5.734;2022-12-26T22:45:41;9.07;;;4.47;;
48789;SDS011;41718;51.980;5.734;2022-12-26T22:50:43;8.52;;;4.57;;
48789;SDS011;41718;51.980;5.734;2022-12-26T22:55:46;9.32;;;5.07;;
48789;SDS011;41718;51.980;5.734;2022-12-26T23:00:49;8.45;;;3.95;;
48789;SDS011;41718;51.980;5.734;2022-12-26T23:05:51;12.25;;;5.18;;
48789;SDS011;41718;51.980;5.734;2022-12-26T23:10:53;12.65;;;4.50;;
48789;SDS011;41718;51.980;5.734;2022-12-26T23:16:02;12.00;;;5.13;;
48789;SDS011;41718;51.980;5.734;2022-12-26T23:21:19;11.60;;;4.70;;
48789;SDS011;41718;51.980;5.734;2022-12-26T23:26:46;6.97;;;3.55;;
48789;SDS011;41718;51.980;5.734;2022-12-26T23:31:49;8.20;;;4.03;;
48789;SDS011;41718;51.980;5.734;2022-12-26T23:36:51;8.35;;;3.70;;
48789;SDS011;41718;51.980;5.734;2022-12-26T23:41:53;7.05;;;3.78;;
48789;SDS011;41718;51.980;5.734;2022-12-26T23:46:56;7.55;;;4.00;;
48789;SDS011;41718;51.980;5.734;2022-12-26T23:51:57;8.45;;;4.22;;
48789;SDS011;41718;51.980;5.734;2022-12-26T23:56:59;13.55;;;5.00;;
